createdAt,value
2018-06-19T00:00:02.468Z,99312.30
2018-06-19T00:00:33.697Z,99315.14
2018-06-19T00:01:04.921Z,99313.66
2018-06-19T00:01:36.104Z,99324.70
2018-06-19T00:02:07.354Z,99320.73
2018-06-19T00:02:38.718Z,99319.06
2018-06-19T00:03:09.903Z,99323.11
2018-06-19T00:03:41.083Z,99316.15
2018-06-19T00:04:12.260Z,99319.62
2018-06-19T00:04:43.483Z,99315.17
2018-06-19T00:05:14.674Z,99321.06
2018-06-19T00:05:45.994Z,99320.20
2018-06-19T00:06:17.181Z,99320.11
2018-06-19T00:06:48.357Z,99317.92
2018-06-19T00:07:19.527Z,99317.66
2018-06-19T00:07:50.719Z,99321.14
2018-06-19T00:08:21.953Z,99319.92
2018-06-19T00:08:53.121Z,99321.84
2018-06-19T00:09:24.346Z,99315.58
2018-06-19T00:09:55.552Z,99316.45
2018-06-19T00:10:26.754Z,99317.28
2018-06-19T00:10:57.965Z,99316.49
2018-06-19T00:11:29.197Z,99321.59
2018-06-19T00:12:00.386Z,99317.41
2018-06-19T00:12:31.636Z,99318.16
2018-06-19T00:13:02.817Z,99320.23
2018-06-19T00:13:34.040Z,99319.64
2018-06-19T00:14:05.226Z,99317.48
2018-06-19T00:14:36.412Z,99322.66
2018-06-19T00:15:07.596Z,99320.84
2018-06-19T00:15:38.817Z,99321.91
2018-06-19T00:16:10.105Z,99326.36
2018-06-19T00:16:41.290Z,99327.42
2018-06-19T00:17:12.548Z,99326.66
2018-06-19T00:17:43.737Z,99331.23
2018-06-19T00:18:14.936Z,99329.05
2018-06-19T00:18:46.101Z,99331.80
2018-06-19T00:19:17.278Z,99321.22
2018-06-19T00:19:48.525Z,99323.64
2018-06-19T00:20:19.741Z,99328.36
2018-06-19T00:20:50.920Z,99297.06
2018-06-19T00:21:22.191Z,99322.66
2018-06-19T00:21:53.376Z,99325.57
2018-06-19T00:22:24.649Z,99321.14
2018-06-19T00:22:55.844Z,99320.17
2018-06-19T00:23:27.008Z,99315.86
2018-06-19T00:23:58.179Z,99316.99
2018-06-19T00:24:29.413Z,99321.07
2018-06-19T00:25:00.709Z,99322.50
2018-06-19T00:25:31.892Z,99323.83
2018-06-19T00:26:03.063Z,99320.99
2018-06-19T00:26:34.306Z,99322.92
2018-06-19T00:27:05.532Z,99326.12
2018-06-19T00:27:36.705Z,99327.08
2018-06-19T00:28:07.922Z,99326.62
2018-06-19T00:28:39.113Z,99327.94
2018-06-19T00:29:10.373Z,99323.59
2018-06-19T00:29:41.596Z,99321.59
2018-06-19T00:30:12.765Z,99322.23
2018-06-19T00:30:44.033Z,99323.08
2018-06-19T00:31:15.269Z,99322.13
2018-06-19T00:31:46.468Z,99323.56
2018-06-19T00:32:17.645Z,99327.53
2018-06-19T00:32:48.894Z,99324.77
2018-06-19T00:33:20.097Z,99325.53
2018-06-19T00:33:51.273Z,99325.80
2018-06-19T00:34:22.444Z,99327.00
2018-06-19T00:34:53.622Z,99322.55
2018-06-19T00:35:24.857Z,99324.25
2018-06-19T00:35:56.081Z,99325.45
2018-06-19T00:36:27.260Z,99318.16
2018-06-19T00:36:58.432Z,99323.72
2018-06-19T00:37:29.609Z,99321.72
2018-06-19T00:38:00.799Z,99322.36
2018-06-19T00:38:32.071Z,99324.05
2018-06-19T00:39:03.304Z,99325.16
2018-06-19T00:39:34.541Z,99325.08
2018-06-19T00:40:05.724Z,99324.96
2018-06-19T00:40:37.914Z,98735.92
2018-06-19T00:41:09.120Z,99326.39
2018-06-19T00:41:41.366Z,99322.05
2018-06-19T00:42:12.597Z,99325.53
2018-06-19T00:42:43.778Z,99320.23
2018-06-19T00:43:14.958Z,99327.91
2018-06-19T00:43:46.193Z,99327.45
2018-06-19T00:44:17.428Z,99327.45
2018-06-19T00:44:48.618Z,99329.13
2018-06-19T00:45:19.827Z,99326.02
2018-06-19T00:45:51.046Z,99324.96
2018-06-19T00:46:22.224Z,99334.00
2018-06-19T00:46:53.398Z,99323.78
2018-06-19T00:47:24.569Z,99330.81
2018-06-19T00:47:55.821Z,99330.41
2018-06-19T00:48:27.076Z,99326.92
2018-06-19T00:48:59.514Z,99328.36
2018-06-19T00:49:30.760Z,99322.99
2018-06-19T00:50:01.949Z,99328.97
2018-06-19T00:50:33.132Z,99333.81
2018-06-19T00:51:04.305Z,99332.38
2018-06-19T00:51:35.546Z,99332.64
2018-06-19T00:52:06.730Z,99338.31
2018-06-19T00:52:37.916Z,99329.98
2018-06-19T00:53:09.132Z,99324.47
2018-06-19T00:53:40.315Z,99332.33
2018-06-19T00:54:11.507Z,99328.66
2018-06-19T00:54:42.677Z,99332.52
2018-06-19T00:55:13.862Z,99331.56
2018-06-19T00:55:45.045Z,99330.97
2018-06-19T00:56:16.225Z,99332.78
2018-06-19T00:56:47.428Z,99326.65
2018-06-19T00:57:18.606Z,99331.94
2018-06-19T00:57:49.801Z,99333.46
2018-06-19T00:58:20.976Z,99331.01
2018-06-19T00:58:52.205Z,99332.67
2018-06-19T00:59:23.383Z,99330.41
2018-06-19T00:59:54.560Z,99334.22
2018-06-19T01:00:25.737Z,99334.22
2018-06-19T01:00:56.915Z,99335.31
2018-06-19T01:01:28.193Z,99333.98
2018-06-19T01:01:59.418Z,99335.91
2018-06-19T01:02:30.642Z,99332.89
2018-06-19T01:03:01.828Z,99334.67
2018-06-19T01:03:33.012Z,99335.16
2018-06-19T01:04:04.185Z,99334.78
2018-06-19T01:04:35.361Z,99335.70
2018-06-19T01:05:06.543Z,99339.30
2018-06-19T01:05:37.720Z,99336.50
2018-06-19T01:06:08.888Z,99336.12
2018-06-19T01:06:40.108Z,99333.73
2018-06-19T01:07:11.277Z,99336.76
2018-06-19T01:07:42.448Z,99337.63
2018-06-19T01:08:13.669Z,99338.27
2018-06-19T01:08:44.932Z,99337.95
2018-06-19T01:09:16.126Z,99338.11
2018-06-19T01:09:47.301Z,99337.65
2018-06-19T01:10:18.521Z,99341.73
2018-06-19T01:10:49.700Z,99342.08
2018-06-19T01:11:20.953Z,99341.51
2018-06-19T01:11:52.233Z,99339.50
2018-06-19T01:12:23.524Z,99341.84
2018-06-19T01:12:54.753Z,99344.48
2018-06-19T01:13:26.231Z,99341.23
2018-06-19T01:13:57.461Z,99347.28
2018-06-19T01:14:28.645Z,99350.56
2018-06-19T01:14:59.879Z,99341.56
2018-06-19T01:15:31.060Z,99346.28
2018-06-19T01:16:02.238Z,99349.22
2018-06-19T01:16:33.408Z,99348.84
2018-06-19T01:17:04.660Z,99351.18
2018-06-19T01:17:35.845Z,99343.23
2018-06-19T01:18:07.068Z,99350.38
2018-06-19T01:18:38.256Z,99352.56
2018-06-19T01:19:09.500Z,99344.81
2018-06-19T01:19:40.720Z,99350.49
2018-06-19T01:20:11.902Z,99339.06
2018-06-19T01:20:43.126Z,99344.81
2018-06-19T01:21:14.316Z,99344.44
2018-06-19T01:21:45.501Z,99343.47
2018-06-19T01:22:16.688Z,99342.52
2018-06-19T01:22:47.925Z,99346.20
2018-06-19T01:23:19.161Z,99347.95
2018-06-19T01:23:50.396Z,99343.63
2018-06-19T01:24:21.616Z,99346.33
2018-06-19T01:24:52.845Z,99339.56
2018-06-19T01:25:24.028Z,99343.16
2018-06-19T01:25:55.203Z,99341.20
2018-06-19T01:26:26.380Z,99342.03
2018-06-19T01:26:57.552Z,99343.24
2018-06-19T01:27:28.821Z,99345.44
2018-06-19T01:28:00.061Z,99342.55
2018-06-19T01:28:31.250Z,99340.66
2018-06-19T01:29:02.490Z,99342.36
2018-06-19T01:29:33.769Z,99342.55
2018-06-19T01:30:05.009Z,99340.55
2018-06-19T01:30:36.194Z,99339.14
2018-06-19T01:31:07.383Z,99337.90
2018-06-19T01:31:38.552Z,99340.92
2018-06-19T01:32:09.727Z,99338.53
2018-06-19T01:32:40.900Z,99346.97
2018-06-19T01:33:12.110Z,99346.10
2018-06-19T01:33:43.332Z,99344.70
2018-06-19T01:34:14.606Z,99340.72
2018-06-19T01:34:45.887Z,99339.28
2018-06-19T01:35:17.070Z,99341.12
2018-06-19T01:35:48.294Z,99343.63
2018-06-19T01:36:19.485Z,99338.67
2018-06-19T01:36:50.662Z,99341.70
2018-06-19T01:37:21.846Z,99337.65
2018-06-19T01:37:53.040Z,99340.30
2018-06-19T01:38:24.251Z,99331.11
2018-06-19T01:38:55.485Z,99340.49
2018-06-19T01:39:26.758Z,99338.42
2018-06-19T01:39:57.940Z,99333.20
2018-06-19T01:40:29.108Z,99336.92
2018-06-19T01:41:01.297Z,99336.28
2018-06-19T01:41:32.474Z,99336.59
2018-06-19T01:42:03.657Z,99330.77
2018-06-19T01:42:34.897Z,99331.94
2018-06-19T01:43:06.089Z,99337.97
2018-06-19T01:43:37.271Z,99332.22
2018-06-19T01:44:08.526Z,99337.14
2018-06-19T01:44:39.696Z,99333.84
2018-06-19T01:45:10.866Z,99335.28
2018-06-19T01:45:42.036Z,99331.88
2018-06-19T01:46:13.213Z,99337.17
2018-06-19T01:46:44.461Z,99339.94
2018-06-19T01:47:15.649Z,99335.48
2018-06-19T01:47:46.818Z,99338.39
2018-06-19T01:48:18.052Z,99341.79
2018-06-19T01:48:49.299Z,99344.92
2018-06-19T01:49:20.532Z,99336.76
2018-06-19T01:49:51.708Z,99337.52
2018-06-19T01:50:22.939Z,99342.31
2018-06-19T01:50:54.174Z,99345.08
2018-06-19T01:51:25.356Z,99346.20
2018-06-19T01:51:56.532Z,99349.23
2018-06-19T01:52:27.756Z,99343.86
2018-06-19T01:52:59.021Z,99342.42
2018-06-19T01:53:30.206Z,99348.66
2018-06-19T01:54:01.433Z,99350.82
2018-06-19T01:54:32.620Z,99349.50
2018-06-19T01:55:03.802Z,99351.80
2018-06-19T01:55:34.981Z,99352.19
2018-06-19T01:56:06.162Z,99349.16
2018-06-19T01:56:38.072Z,99348.25
2018-06-19T01:57:09.253Z,99355.59
2018-06-19T01:57:40.508Z,99349.84
2018-06-19T01:58:11.749Z,99349.62
2018-06-19T01:58:42.921Z,99351.80
2018-06-19T01:59:14.096Z,99347.58
2018-06-19T01:59:45.268Z,99351.63
2018-06-19T02:00:16.460Z,99352.00
2018-06-19T02:00:47.633Z,99356.66
2018-06-19T02:01:18.820Z,99355.81
2018-06-19T02:01:50.066Z,99359.79
2018-06-19T02:02:21.244Z,99358.47
2018-06-19T02:02:52.470Z,99358.20
2018-06-19T02:03:23.746Z,99352.53
2018-06-19T02:03:54.925Z,99353.48
2018-06-19T02:04:26.152Z,99353.02
2018-06-19T02:04:57.446Z,99350.26
2018-06-19T02:05:28.688Z,99354.80
2018-06-19T02:05:59.912Z,99353.85
2018-06-19T02:06:31.096Z,99349.88
2018-06-19T02:07:02.328Z,99354.80
2018-06-19T02:07:33.601Z,99349.50
2018-06-19T02:08:04.785Z,99349.05
2018-06-19T02:08:36.018Z,99351.47
2018-06-19T02:09:07.253Z,99349.69
2018-06-19T02:09:38.498Z,99345.23
2018-06-19T02:10:09.773Z,99347.31
2018-06-19T02:10:41.008Z,99352.38
2018-06-19T02:11:12.279Z,99353.55
2018-06-19T02:11:43.466Z,99356.77
2018-06-19T02:12:14.636Z,99353.97
2018-06-19T02:12:45.857Z,99350.19
2018-06-19T02:13:17.035Z,99348.14
2018-06-19T02:13:48.200Z,99357.48
2018-06-19T02:14:19.369Z,99358.45
2018-06-19T02:14:50.550Z,99354.95
2018-06-19T02:15:21.733Z,99354.30
2018-06-19T02:15:53.322Z,99353.09
2018-06-19T02:16:24.549Z,99361.41
2018-06-19T02:16:55.776Z,99362.23
2018-06-19T02:17:27.014Z,99358.38
2018-06-19T02:17:58.188Z,99359.17
2018-06-19T02:18:29.373Z,99351.34
2018-06-19T02:19:00.646Z,99356.26
2018-06-19T02:19:31.836Z,99357.02
2018-06-19T02:20:03.062Z,99354.72
2018-06-19T02:20:34.294Z,99357.47
2018-06-19T02:21:05.495Z,99354.94
2018-06-19T02:21:36.664Z,99355.77
2018-06-19T02:22:07.839Z,99353.87
2018-06-19T02:22:39.015Z,99349.91
2018-06-19T02:23:10.203Z,99347.27
2018-06-19T02:23:41.378Z,99356.68
2018-06-19T02:24:12.597Z,99353.58
2018-06-19T02:24:43.817Z,99354.41
2018-06-19T02:25:14.992Z,99353.09
2018-06-19T02:25:46.178Z,99351.66
2018-06-19T02:26:17.357Z,99348.28
2018-06-19T02:26:48.536Z,99349.88
2018-06-19T02:27:19.716Z,99351.58
2018-06-19T02:27:50.981Z,99350.59
2018-06-19T02:28:22.217Z,99351.84
2018-06-19T02:28:53.432Z,99354.95
2018-06-19T02:29:24.612Z,99350.03
2018-06-19T02:29:55.841Z,99351.47
2018-06-19T02:30:27.024Z,99352.52
2018-06-19T02:30:58.208Z,99351.39
2018-06-19T02:31:29.413Z,99348.02
2018-06-19T02:32:00.598Z,99348.02
2018-06-19T02:32:31.830Z,99354.82
2018-06-19T02:33:03.031Z,99347.83
2018-06-19T02:33:34.217Z,99347.67
2018-06-19T02:34:05.397Z,99345.25
2018-06-19T02:34:36.634Z,99345.25
2018-06-19T02:35:07.827Z,99342.68
2018-06-19T02:35:39.006Z,99344.49
2018-06-19T02:36:10.215Z,99346.58
2018-06-19T02:36:41.394Z,99346.20
2018-06-19T02:37:12.577Z,99350.62
2018-06-19T02:37:43.757Z,99345.44
2018-06-19T02:38:14.932Z,99349.41
2018-06-19T02:38:46.162Z,99344.60
2018-06-19T02:39:17.355Z,99350.35
2018-06-19T02:39:48.580Z,99346.00
2018-06-19T02:40:19.759Z,99347.81
2018-06-19T02:40:50.973Z,99349.78
2018-06-19T02:41:22.207Z,99347.30
2018-06-19T02:41:53.455Z,99348.16
2018-06-19T02:42:24.676Z,99346.92
2018-06-19T02:42:55.868Z,99348.23
2018-06-19T02:43:27.089Z,99347.30
2018-06-19T02:43:58.266Z,99352.40
2018-06-19T02:44:29.488Z,99347.00
2018-06-19T02:45:00.725Z,99355.77
2018-06-19T02:45:31.907Z,99347.45
2018-06-19T02:46:03.097Z,99351.53
2018-06-19T02:46:34.308Z,99348.62
2018-06-19T02:47:05.545Z,99349.22
2018-06-19T02:47:36.720Z,99344.38
2018-06-19T02:48:07.896Z,99350.54
2018-06-19T02:48:39.080Z,99347.89
2018-06-19T02:49:10.259Z,99349.22
2018-06-19T02:49:41.486Z,99350.54
2018-06-19T02:50:12.714Z,99346.58
2018-06-19T02:50:43.901Z,99347.30
2018-06-19T02:51:15.075Z,99347.41
2018-06-19T02:51:46.277Z,99349.30
2018-06-19T02:52:17.532Z,99347.14
2018-06-19T02:52:48.830Z,99352.42
2018-06-19T02:53:20.012Z,99345.44
2018-06-19T02:53:51.245Z,99345.28
2018-06-19T02:54:22.481Z,99348.00
2018-06-19T02:54:53.668Z,99343.58
2018-06-19T02:55:24.848Z,99347.70
2018-06-19T02:55:56.081Z,99345.97
2018-06-19T02:56:27.264Z,99347.00
2018-06-19T02:56:58.444Z,99346.70
2018-06-19T02:57:29.677Z,99346.28
2018-06-19T02:58:00.894Z,99347.91
2018-06-19T02:58:32.082Z,99338.72
2018-06-19T02:59:03.260Z,99344.66
2018-06-19T02:59:34.505Z,99342.58
2018-06-19T03:00:05.743Z,99338.99
2018-06-19T03:00:36.976Z,99340.58
2018-06-19T03:01:08.166Z,99342.05
2018-06-19T03:01:39.407Z,99339.67
2018-06-19T03:02:10.585Z,99341.09
2018-06-19T03:02:41.809Z,99341.51
2018-06-19T03:03:13.032Z,99343.73
2018-06-19T03:03:44.210Z,99342.36
2018-06-19T03:04:15.380Z,99343.45
2018-06-19T03:04:46.613Z,99347.49
2018-06-19T03:05:17.800Z,99344.16
2018-06-19T03:05:49.026Z,99348.16
2018-06-19T03:06:20.217Z,99351.62
2018-06-19T03:06:51.412Z,99348.16
2018-06-19T03:07:22.693Z,99343.75
2018-06-19T03:07:53.952Z,99352.22
2018-06-19T03:08:25.139Z,99345.61
2018-06-19T03:08:56.413Z,99348.32
2018-06-19T03:09:27.661Z,99349.27
2018-06-19T03:09:58.852Z,99352.41
2018-06-19T03:10:30.080Z,99356.38
2018-06-19T03:11:01.260Z,99348.36
2018-06-19T03:11:32.437Z,99353.09
2018-06-19T03:12:03.665Z,99352.23
2018-06-19T03:12:34.854Z,99348.80
2018-06-19T03:13:06.037Z,99354.16
2018-06-19T03:13:37.248Z,99353.09
2018-06-19T03:14:08.431Z,99348.30
2018-06-19T03:14:39.609Z,99354.02
2018-06-19T03:15:10.788Z,99351.53
2018-06-19T03:15:42.004Z,99352.98
2018-06-19T03:16:13.297Z,99355.13
2018-06-19T03:16:44.543Z,99357.08
2018-06-19T03:17:15.724Z,99351.34
2018-06-19T03:17:46.900Z,99352.44
2018-06-19T03:18:18.071Z,99353.77
2018-06-19T03:18:49.292Z,99354.38
2018-06-19T03:19:20.488Z,99359.71
2018-06-19T03:19:51.701Z,99364.33
2018-06-19T03:20:22.864Z,99357.22
2018-06-19T03:20:54.037Z,99358.91
2018-06-19T03:21:25.263Z,99364.86
2018-06-19T03:21:56.503Z,99365.45
2018-06-19T03:22:27.685Z,99361.72
2018-06-19T03:22:58.865Z,99365.82
2018-06-19T03:23:30.038Z,99361.60
2018-06-19T03:24:01.212Z,99363.41
2018-06-19T03:24:32.381Z,99365.95
2018-06-19T03:25:03.605Z,99365.81
2018-06-19T03:25:34.779Z,99362.80
2018-06-19T03:26:05.956Z,99367.61
2018-06-19T03:26:37.127Z,99367.98
2018-06-19T03:27:08.353Z,99365.46
2018-06-19T03:27:39.532Z,99368.72
2018-06-19T03:28:10.740Z,99367.38
2018-06-19T03:28:41.924Z,99367.25
2018-06-19T03:29:13.157Z,99364.03
2018-06-19T03:29:44.379Z,99371.60
2018-06-19T03:30:15.710Z,99369.66
2018-06-19T03:30:46.925Z,99371.95
2018-06-19T03:31:18.164Z,99371.59
2018-06-19T03:31:49.397Z,99371.97
2018-06-19T03:32:20.636Z,99374.60
2018-06-19T03:32:51.867Z,99382.78
2018-06-19T03:33:23.042Z,99373.80
2018-06-19T03:33:54.266Z,99372.33
2018-06-19T03:34:25.503Z,99374.02
2018-06-19T03:34:56.732Z,99375.72
2018-06-19T03:35:27.912Z,99374.53
2018-06-19T03:35:59.072Z,99374.98
2018-06-19T03:36:30.304Z,99380.59
2018-06-19T03:37:01.472Z,99375.77
2018-06-19T03:37:32.645Z,99374.98
2018-06-19T03:38:03.829Z,99374.48
2018-06-19T03:38:34.992Z,99377.52
2018-06-19T03:39:06.200Z,99375.91
2018-06-19T03:39:37.373Z,99375.31
2018-06-19T03:40:08.540Z,99378.88
2018-06-19T03:40:39.712Z,99379.95
2018-06-19T03:41:10.880Z,99375.07
2018-06-19T03:41:42.053Z,99376.03
2018-06-19T03:42:13.279Z,99377.52
2018-06-19T03:42:44.497Z,99380.55
2018-06-19T03:43:15.754Z,99382.86
2018-06-19T03:43:46.934Z,99379.58
2018-06-19T03:44:18.101Z,99383.22
2018-06-19T03:44:49.354Z,99380.64
2018-06-19T03:45:20.537Z,99382.84
2018-06-19T03:45:51.705Z,99383.59
2018-06-19T03:46:22.880Z,99384.28
2018-06-19T03:46:54.060Z,99381.05
2018-06-19T03:47:25.284Z,99384.17
2018-06-19T03:47:56.508Z,99379.97
2018-06-19T03:48:27.676Z,99386.87
2018-06-19T03:48:58.857Z,99385.95
2018-06-19T03:49:30.046Z,99388.16
2018-06-19T03:50:01.209Z,99388.35
2018-06-19T03:50:32.445Z,99385.66
2018-06-19T03:51:03.668Z,99387.57
2018-06-19T03:51:34.865Z,99392.29
2018-06-19T03:52:06.052Z,99388.19
2018-06-19T03:52:37.268Z,99389.62
2018-06-19T03:53:08.429Z,99393.14
2018-06-19T03:53:39.601Z,99388.50
2018-06-19T03:54:10.770Z,99391.36
2018-06-19T03:54:41.944Z,99394.20
2018-06-19T03:55:13.184Z,99388.70
2018-06-19T03:55:44.365Z,99392.25
2018-06-19T03:56:15.548Z,99392.91
2018-06-19T03:56:46.725Z,99389.78
2018-06-19T03:57:17.889Z,99388.23
2018-06-19T03:57:49.097Z,99390.40
2018-06-19T03:58:20.343Z,99392.54
2018-06-19T03:58:51.528Z,99392.92
2018-06-19T03:59:22.697Z,99389.52
2018-06-19T03:59:53.873Z,99391.45
2018-06-19T04:00:25.101Z,99392.21
2018-06-19T04:00:56.308Z,99393.48
2018-06-19T04:01:27.490Z,99389.83
2018-06-19T04:01:58.714Z,99392.67
2018-06-19T04:02:29.897Z,99390.63
2018-06-19T04:03:01.120Z,99397.96
2018-06-19T04:03:32.344Z,99395.91
2018-06-19T04:04:03.517Z,99394.23
2018-06-19T04:04:34.692Z,99397.25
2018-06-19T04:05:05.865Z,99394.27
2018-06-19T04:05:37.042Z,99398.71
2018-06-19T04:06:08.219Z,99398.83
2018-06-19T04:06:39.389Z,99394.69
2018-06-19T04:07:10.562Z,99391.31
2018-06-19T04:07:41.788Z,99402.33
2018-06-19T04:08:12.997Z,99390.11
2018-06-19T04:08:44.270Z,99398.48
2018-06-19T04:09:15.449Z,99397.95
2018-06-19T04:09:46.616Z,99399.37
2018-06-19T04:10:17.837Z,99395.36
2018-06-19T04:10:49.013Z,99392.86
2018-06-19T04:11:20.290Z,99398.94
2018-06-19T04:11:51.486Z,99398.06
2018-06-19T04:12:22.685Z,99397.78
2018-06-19T04:12:53.913Z,99400.34
2018-06-19T04:13:25.092Z,99395.72
2018-06-19T04:13:56.360Z,99397.52
2018-06-19T04:14:27.559Z,99400.68
2018-06-19T04:14:58.731Z,99397.22
2018-06-19T04:15:29.944Z,99408.23
2018-06-19T04:16:01.218Z,99401.48
2018-06-19T04:16:32.450Z,99399.89
2018-06-19T04:17:03.667Z,99400.45
2018-06-19T04:17:34.834Z,99404.48
2018-06-19T04:18:06.012Z,99397.59
2018-06-19T04:18:37.278Z,99409.00
2018-06-19T04:19:08.477Z,99399.09
2018-06-19T04:19:39.651Z,99401.27
2018-06-19T04:20:10.821Z,99408.70
2018-06-19T04:20:42.036Z,99401.84
2018-06-19T04:21:13.209Z,99402.22
2018-06-19T04:21:44.404Z,99402.92
2018-06-19T04:22:15.590Z,99400.06
2018-06-19T04:22:46.760Z,99402.53
2018-06-19T04:23:17.990Z,99405.20
2018-06-19T04:23:49.261Z,99404.20
2018-06-19T04:24:20.528Z,99409.95
2018-06-19T04:24:51.709Z,99401.42
2018-06-19T04:25:22.877Z,99401.50
2018-06-19T04:25:54.152Z,99405.02
2018-06-19T04:26:25.377Z,99402.10
2018-06-19T04:26:56.560Z,99407.08
2018-06-19T04:27:27.772Z,99404.02
2018-06-19T04:27:58.952Z,99402.40
2018-06-19T04:28:30.209Z,99408.81
2018-06-19T04:29:01.433Z,99403.54
2018-06-19T04:29:32.653Z,99400.25
2018-06-19T04:30:03.832Z,99401.40
2018-06-19T04:30:35.021Z,99407.77
2018-06-19T04:31:06.193Z,99403.62
2018-06-19T04:31:37.488Z,99402.02
2018-06-19T04:32:08.714Z,99407.98
2018-06-19T04:32:39.905Z,99403.09
2018-06-19T04:33:11.072Z,99404.65
2018-06-19T04:33:42.325Z,99404.89
2018-06-19T04:34:13.559Z,99407.19
2018-06-19T04:34:44.745Z,99405.55
2018-06-19T04:35:15.918Z,99403.89
2018-06-19T04:35:47.101Z,99405.99
2018-06-19T04:36:18.279Z,99399.67
2018-06-19T04:36:49.540Z,99408.34
2018-06-19T04:37:20.752Z,99405.16
2018-06-19T04:37:51.927Z,99402.14
2018-06-19T04:38:23.160Z,99402.95
2018-06-19T04:38:54.344Z,99406.16
2018-06-19T04:39:25.513Z,99407.59
2018-06-19T04:39:56.740Z,99413.25
2018-06-19T04:40:27.940Z,99401.78
2018-06-19T04:40:59.129Z,99411.91
2018-06-19T04:41:30.353Z,99414.61
2018-06-19T04:42:01.587Z,99412.84
2018-06-19T04:42:32.729Z,99411.61
2018-06-19T04:43:03.896Z,99412.94
2018-06-19T04:43:35.081Z,99414.47
2018-06-19T04:44:06.267Z,99418.08
2018-06-19T04:44:37.441Z,99412.16
2018-06-19T04:45:08.625Z,99413.22
2018-06-19T04:45:39.857Z,99413.56
2018-06-19T04:46:11.078Z,99415.68
2018-06-19T04:46:42.257Z,99419.23
2018-06-19T04:47:13.440Z,99422.97
2018-06-19T04:47:44.636Z,99419.90
2018-06-19T04:48:15.812Z,99415.00
2018-06-19T04:48:46.994Z,99415.19
2018-06-19T04:49:18.165Z,99420.31
2018-06-19T04:49:49.431Z,99422.04
2018-06-19T04:50:20.592Z,99422.48
2018-06-19T04:50:51.773Z,99420.83
2018-06-19T04:51:22.994Z,99413.28
2018-06-19T04:51:54.175Z,99414.73
2018-06-19T04:52:25.345Z,99421.22
2018-06-19T04:52:56.541Z,99419.77
2018-06-19T04:53:27.718Z,99420.80
2018-06-19T04:53:58.945Z,99424.03
2018-06-19T04:54:30.186Z,99419.60
2018-06-19T04:55:01.413Z,99416.98
2018-06-19T04:55:32.577Z,99420.84
2018-06-19T04:56:03.761Z,99424.59
2018-06-19T04:56:34.948Z,99417.56
2018-06-19T04:57:06.148Z,99420.39
2018-06-19T04:57:37.335Z,99424.91
2018-06-19T04:58:08.513Z,99417.30
2018-06-19T04:58:39.696Z,99426.87
2018-06-19T04:59:10.933Z,99418.61
2018-06-19T04:59:42.156Z,99424.27
2018-06-19T05:00:13.398Z,99420.61
2018-06-19T05:00:44.648Z,99419.11
2018-06-19T05:01:15.840Z,99427.97
2018-06-19T05:01:47.056Z,99419.59
2018-06-19T05:02:18.240Z,99427.11
2018-06-19T05:02:49.474Z,99423.73
2018-06-19T05:03:20.660Z,99425.21
2018-06-19T05:03:51.906Z,99423.68
2018-06-19T05:04:23.100Z,99422.55
2018-06-19T05:04:54.361Z,99421.42
2018-06-19T05:05:25.554Z,99422.98
2018-06-19T05:05:56.743Z,99424.38
2018-06-19T05:06:27.921Z,99426.83
2018-06-19T05:06:59.099Z,99429.22
2018-06-19T05:07:30.284Z,99426.28
2018-06-19T05:08:01.525Z,99424.68
2018-06-19T05:08:32.725Z,99430.16
2018-06-19T05:09:04.006Z,99421.50
2018-06-19T05:09:35.277Z,99420.05
2018-06-19T05:10:06.465Z,99426.30
2018-06-19T05:10:37.667Z,99424.34
2018-06-19T05:11:08.913Z,99423.88
2018-06-19T05:11:40.093Z,99426.80
2018-06-19T05:12:11.269Z,99426.91
2018-06-19T05:12:42.511Z,99423.95
2018-06-19T05:13:13.725Z,99419.95
2018-06-19T05:13:45.002Z,99423.01
2018-06-19T05:14:16.230Z,99426.70
2018-06-19T05:14:47.480Z,99433.05
2018-06-19T05:15:18.661Z,99435.18
2018-06-19T05:15:49.921Z,99432.54
2018-06-19T05:16:21.168Z,99429.70
2018-06-19T05:16:52.420Z,99424.70
2018-06-19T05:17:23.611Z,99423.17
2018-06-19T05:17:54.784Z,99427.89
2018-06-19T05:18:25.962Z,99421.48
2018-06-19T05:18:57.139Z,99432.30
2018-06-19T05:19:28.428Z,99435.60
2018-06-19T05:19:59.633Z,99435.86
2018-06-19T05:20:30.849Z,99431.41
2018-06-19T05:21:02.025Z,99434.36
2018-06-19T05:21:33.200Z,99437.77
2018-06-19T05:22:04.382Z,99435.11
2018-06-19T05:22:35.566Z,99425.72
2018-06-19T05:23:06.801Z,99427.13
2018-06-19T05:23:38.036Z,99424.74
2018-06-19T05:24:09.226Z,99424.56
2018-06-19T05:24:40.400Z,99427.12
2018-06-19T05:25:11.572Z,99427.44
2018-06-19T05:25:42.732Z,99430.81
2018-06-19T05:26:13.911Z,99430.48
2018-06-19T05:26:45.084Z,99429.96
2018-06-19T05:27:16.253Z,99427.80
2018-06-19T05:27:47.430Z,99424.09
2018-06-19T05:28:18.596Z,99435.83
2018-06-19T05:28:49.762Z,99429.55
2018-06-19T05:29:20.982Z,99431.05
2018-06-19T05:29:52.164Z,99429.05
2018-06-19T05:30:23.379Z,99427.89
2018-06-19T05:30:54.590Z,99431.47
2018-06-19T05:31:28.609Z,99427.63
2018-06-19T05:31:59.792Z,99428.98
2018-06-19T05:32:31.057Z,99431.47
2018-06-19T05:33:02.234Z,99427.41
2018-06-19T05:33:33.409Z,99425.55
2018-06-19T05:34:04.635Z,99430.70
2018-06-19T05:34:35.820Z,99430.34
2018-06-19T05:35:07.040Z,99427.27
2018-06-19T05:35:38.245Z,99433.28
2018-06-19T05:36:09.408Z,99429.27
2018-06-19T05:36:40.637Z,99428.62
2018-06-19T05:37:11.817Z,99426.48
2018-06-19T05:37:42.998Z,99427.03
2018-06-19T05:38:14.169Z,99426.35
2018-06-19T05:38:45.337Z,99427.34
2018-06-19T05:39:16.512Z,99427.63
2018-06-19T05:39:47.687Z,99429.45
2018-06-19T05:40:18.864Z,99423.92
2018-06-19T05:40:51.010Z,99426.67
2018-06-19T05:41:22.866Z,99429.52
2018-06-19T05:41:54.038Z,99426.34
2018-06-19T05:42:25.218Z,99429.21
2018-06-19T05:42:56.424Z,99423.36
2018-06-19T05:43:27.624Z,99406.42
2018-06-19T05:43:58.813Z,99423.71
2018-06-19T05:44:30.050Z,99429.44
2018-06-19T05:45:01.241Z,99429.44
2018-06-19T05:45:32.468Z,99427.91
2018-06-19T05:46:03.648Z,99429.22
2018-06-19T05:46:34.861Z,99425.18
2018-06-19T05:47:06.094Z,99432.08
2018-06-19T05:47:37.285Z,99427.52
2018-06-19T05:48:08.573Z,99428.32
2018-06-19T05:48:39.805Z,99432.19
2018-06-19T05:49:12.122Z,99429.00
2018-06-19T05:49:43.345Z,99429.52
2018-06-19T05:50:15.705Z,99432.73
2018-06-19T05:50:46.967Z,99428.22
2018-06-19T05:51:18.159Z,99432.30
2018-06-19T05:51:49.384Z,99430.14
2018-06-19T05:52:23.582Z,99430.31
2018-06-19T05:52:54.880Z,99431.50
2018-06-19T05:53:26.069Z,99429.15
2018-06-19T05:53:57.256Z,99428.30
2018-06-19T05:54:28.521Z,99432.50
2018-06-19T05:54:59.721Z,99429.79
2018-06-19T05:55:30.949Z,99434.86
2018-06-19T05:56:02.150Z,99438.22
2018-06-19T05:56:33.324Z,99431.64
2018-06-19T05:57:04.549Z,99437.03
2018-06-19T05:57:35.734Z,99432.80
2018-06-19T05:58:06.999Z,99433.10
2018-06-19T05:58:38.181Z,99436.80
2018-06-19T05:59:09.357Z,99437.31
2018-06-19T05:59:40.654Z,99431.42
2018-06-19T06:00:11.874Z,99437.77
2018-06-19T06:00:43.057Z,99437.12
2018-06-19T06:01:14.297Z,99434.73
2018-06-19T06:02:22.924Z,99441.63
2018-06-19T06:02:54.236Z,99440.66
2018-06-19T06:03:25.461Z,99437.80
2018-06-19T06:03:56.649Z,99440.14
2018-06-19T06:04:27.821Z,99438.14
2018-06-19T06:04:58.996Z,99444.87
2018-06-19T06:05:30.251Z,99444.18
2018-06-19T06:06:01.519Z,99454.42
2018-06-19T06:06:32.705Z,99446.45
2018-06-19T06:07:03.986Z,99446.31